Time;durP1;ratioP1;P1;durP2;ratioP2;P2;SDS_P1;SDS_P2;PMS_P1;PMS_P2;Temp;Humidity;BMP_temperature;BMP_pressure;BME280_temperature;BME280_humidity;BME280_pressure;Samples;Min_cycle;Max_cycle;Signal;HPM_P1;HPM_P2
2024/03/09 00:01:37;;;;;;;5.43;3.87;;;;;;;;;;6317146;28;20051;-76
2024/03/09 00:04:38;;;;;;;;;;;;;;;;;;6306669;28;20112;-77
2024/03/09 00:07:39;;;;;;;5.23;3.20;;;;;;;;;;6313614;28;20663;-76
2024/03/09 00:10:39;;;;;;;5.03;3.67;;;;;;;;;;6304926;28;20020;-76
2024/03/09 00:13:41;;;;;;;5.70;4.00;;;;;;;;;;6316664;28;20028;-76
2024/03/09 00:16:41;;;;;;;;;;;;;;;;;;6319963;28;20031;-76
2024/03/09 00:19:42;;;;;;;5.68;2.85;;;;;;;;;;6282473;28;19912;-76
2024/03/09 00:22:45;;;;;;;4.60;3.13;;;;;;;;;;6306865;28;20185;-76
2024/03/09 00:25:46;;;;;;;4.70;3.58;;;;;;;;;;6311871;28;20492;-76
2024/03/09 00:28:46;;;;;;;4.47;3.23;;;;;;;;;;6320538;28;20059;-76
2024/03/09 00:31:46;;;;;;;4.33;3.80;;;;;;;;;;6296307;28;20032;-76
2024/03/09 00:34:46;;;;;;;4.73;3.67;;;;;;;;;;6314269;28;20032;-75
2024/03/09 00:37:48;;;;;;;4.23;3.37;;;;;;;;;;6315626;28;20028;-76
2024/03/09 00:40:48;;;;;;;;;;;;;;;;;;6309486;28;20039;-76
2024/03/09 00:43:48;;;;;;;4.05;3.25;;;;;;;;;;6319424;28;20019;-75
2024/03/09 00:46:49;;;;;;;5.53;3.93;;;;;;;;;;6315712;28;20039;-76
2024/03/09 00:49:49;;;;;;;4.37;3.37;;;;;;;;;;6295357;28;20180;-76
2024/03/09 00:52:50;;;;;;;4.77;3.50;;;;;;;;;;6304806;28;20522;-76
2024/03/09 00:55:50;;;;;;;4.50;3.25;;;;;;;;;;6318479;28;20027;-76
2024/03/09 00:58:55;;;;;;;4.87;3.73;;;;;;;;;;6315519;28;20046;-76
2024/03/09 01:01:56;;;;;;;4.85;3.92;;;;;;;;;;6315056;28;20477;-76
2024/03/09 01:04:56;;;;;;;5.43;3.77;;;;;;;;;;6309110;28;20197;-76
2024/03/09 01:07:57;;;;;;;5.00;3.20;;;;;;;;;;6308265;28;20270;-76
2024/03/09 01:10:57;;;;;;;5.83;3.53;;;;;;;;;;6301772;28;20052;-76
2024/03/09 01:13:57;;;;;;;4.97;3.93;;;;;;;;;;6315566;28;20036;-76
2024/03/09 01:16:59;;;;;;;5.37;3.70;;;;;;;;;;6315464;28;20028;-76
2024/03/09 01:19:59;;;;;;;5.18;3.90;;;;;;;;;;6320645;28;20024;-75
2024/03/09 01:23:00;;;;;;;5.00;3.13;;;;;;;;;;6309463;28;20090;-75
2024/03/09 01:26:00;;;;;;;5.20;3.37;;;;;;;;;;6320006;28;20485;-75
2024/03/09 01:29:00;;;;;;;6.17;3.97;;;;;;;;;;6324318;28;20032;-76
2024/03/09 01:32:05;;;;;;;5.20;3.80;;;;;;;;;;6321848;28;20035;-76
2024/03/09 01:35:08;;;;;;;5.78;3.72;;;;;;;;;;6320787;28;20024;-76
2024/03/09 01:38:09;;;;;;;4.68;3.58;;;;;;;;;;6322977;28;20024;-76
2024/03/09 01:41:10;;;;;;;5.07;3.75;;;;;;;;;;6322386;28;20030;-76
2024/03/09 01:44:10;;;;;;;5.13;3.50;;;;;;;;;;6305010;28;20067;-76
2024/03/09 01:47:11;;;;;;;4.13;3.40;;;;;;;;;;6323808;28;20441;-76
2024/03/09 01:50:12;;;;;;;4.90;3.88;;;;;;;;;;6314109;28;20461;-76
2024/03/09 01:53:14;;;;;;;5.22;3.70;;;;;;;;;;6303664;28;20023;-76
2024/03/09 01:56:15;;;;;;;5.47;3.95;;;;;;;;;;6323690;28;20020;-76
2024/03/09 01:59:17;;;;;;;6.50;4.23;;;;;;;;;;6322852;28;20458;-76
2024/03/09 02:02:20;;;;;;;4.93;3.88;;;;;;;;;;6323757;28;20020;-76
2024/03/09 02:05:20;;;;;;;5.50;3.95;;;;;;;;;;6316221;28;20024;-76
2024/03/09 02:08:23;;;;;;;4.43;3.70;;;;;;;;;;6303738;28;20089;-76
2024/03/09 02:11:23;;;;;;;6.75;4.20;;;;;;;;;;6321189;28;20056;-76
2024/03/09 02:14:24;;;;;;;5.47;3.97;;;;;;;;;;6324288;28;20030;-76
2024/03/09 02:17:24;;;;;;;5.20;4.00;;;;;;;;;;6318987;28;20024;-76
2024/03/09 02:20:27;;;;;;;4.47;3.40;;;;;;;;;;6322428;28;20051;-76
2024/03/09 02:23:30;;;;;;;5.68;4.20;;;;;;;;;;6319237;28;20432;-76
2024/03/09 02:26:31;;;;;;;5.43;4.28;;;;;;;;;;6322233;28;20462;-76
2024/03/09 02:29:31;;;;;;;6.20;4.37;;;;;;;;;;6323331;28;20016;-76
2024/03/09 02:32:32;;;;;;;5.50;4.03;;;;;;;;;;6322752;28;20254;-76
2024/03/09 02:35:32;;;;;;;5.50;3.90;;;;;;;;;;6321025;28;20027;-76
2024/03/09 02:38:32;;;;;;;4.93;3.97;;;;;;;;;;6317971;28;20075;-76
2024/03/09 02:41:32;;;;;;;5.43;3.87;;;;;;;;;;6316568;28;20024;-76
2024/03/09 02:44:33;;;;;;;5.53;4.00;;;;;;;;;;6320705;28;20093;-76
2024/03/09 02:47:33;;;;;;;5.30;4.13;;;;;;;;;;6323341;28;20066;-76
2024/03/09 02:50:34;;;;;;;5.40;3.97;;;;;;;;;;6322328;28;20040;-76
2024/03/09 02:53:35;;;;;;;5.53;4.27;;;;;;;;;;6323541;28;20034;-76
2024/03/09 02:56:36;;;;;;;5.13;4.22;;;;;;;;;;6318058;28;20032;-76
2024/03/09 02:59:36;;;;;;;5.40;4.40;;;;;;;;;;6311672;28;20054;-76
2024/03/09 03:05:55;;;;;;;5.57;3.95;;;;;;;;;;6313579;28;20020;-76
2024/03/09 03:09:01;;;;;;;5.53;4.03;;;;;;;;;;6312446;28;20086;-76
2024/03/09 03:12:01;;;;;;;5.47;4.32;;;;;;;;;;6318137;28;20083;-76
2024/03/09 03:15:01;;;;;;;6.07;4.27;;;;;;;;;;6308012;28;20028;-76
2024/03/09 03:18:02;;;;;;;5.80;4.27;;;;;;;;;;6298004;28;20828;-76
2024/03/09 03:21:02;;;;;;;5.67;4.20;;;;;;;;;;6311408;28;20048;-76
2024/03/09 03:24:03;;;;;;;5.53;4.33;;;;;;;;;;6309559;28;20183;-76
2024/03/09 03:27:03;;;;;;;6.30;4.63;;;;;;;;;;6309798;28;20049;-75
2024/03/09 03:30:04;;;;;;;5.77;4.37;;;;;;;;;;6317095;28;20270;-76
2024/03/09 03:33:05;;;;;;;6.70;4.77;;;;;;;;;;6318415;28;20120;-76
2024/03/09 03:36:09;;;;;;;6.50;4.70;;;;;;;;;;6324786;28;20027;-76
2024/03/09 03:39:13;;;;;;;6.28;4.93;;;;;;;;;;6316608;28;20089;-76
2024/03/09 03:42:13;;;;;;;7.05;5.03;;;;;;;;;;6299950;28;20032;-76
2024/03/09 03:45:14;;;;;;;6.40;4.83;;;;;;;;;;6292120;28;20055;-76
2024/03/09 03:48:16;;;;;;;5.45;4.55;;;;;;;;;;6311112;28;20107;-76
2024/03/09 03:51:17;;;;;;;5.57;4.53;;;;;;;;;;6322107;28;20032;-75
2024/03/09 03:54:18;;;;;;;5.88;4.53;;;;;;;;;;6315167;28;20021;-76
2024/03/09 03:57:18;;;;;;;5.93;4.43;;;;;;;;;;6314677;28;20048;-76
2024/03/09 04:00:20;;;;;;;6.00;4.83;;;;;;;;;;6317957;28;20030;-76
2024/03/09 04:03:22;;;;;;;6.28;4.70;;;;;;;;;;6317608;28;20059;-76
2024/03/09 04:06:22;;;;;;;5.38;4.25;;;;;;;;;;6322808;28;20039;-76
2024/03/09 04:09:23;;;;;;;6.43;4.43;;;;;;;;;;6318223;28;20369;-76
2024/03/09 04:12:24;;;;;;;6.75;4.68;;;;;;;;;;6322034;28;20036;-76
2024/03/09 04:15:26;;;;;;;7.15;5.20;;;;;;;;;;6324216;28;20028;-76
2024/03/09 04:18:29;;;;;;;7.88;4.68;;;;;;;;;;6316516;28;20024;-76
2024/03/09 04:21:29;;;;;;;7.50;5.15;;;;;;;;;;6320422;28;20016;-76
2024/03/09 04:24:29;;;;;;;6.47;5.03;;;;;;;;;;6324840;28;20035;-76
2024/03/09 04:27:30;;;;;;;8.10;5.00;;;;;;;;;;6322217;28;20035;-76
2024/03/09 04:30:33;;;;;;;6.67;4.80;;;;;;;;;;6325985;28;20536;-75
2024/03/09 04:33:33;;;;;;;6.13;4.63;;;;;;;;;;6323868;28;20024;-76
2024/03/09 04:36:36;;;;;;;5.73;4.73;;;;;;;;;;6322430;28;20031;-76
2024/03/09 04:39:43;;;;;;;6.22;4.82;;;;;;;;;;6318539;28;20088;-76
2024/03/09 04:42:46;;;;;;;6.85;4.97;;;;;;;;;;6299119;28;20089;-76
2024/03/09 04:45:50;;;;;;;6.90;5.13;;;;;;;;;;6322849;28;20023;-76
2024/03/09 04:48:50;;;;;;;6.60;5.25;;;;;;;;;;6323521;28;20027;-76
2024/03/09 04:51:51;;;;;;;6.50;5.10;;;;;;;;;;6321613;28;20372;-76
2024/03/09 04:54:51;;;;;;;6.77;5.27;;;;;;;;;;6323044;28;20463;-76
2024/03/09 04:57:51;;;;;;;6.40;4.93;;;;;;;;;;6322237;28;20039;-76
2024/03/09 05:00:51;;;;;;;6.17;5.23;;;;;;;;;;6323571;28;20058;-75
2024/03/09 05:03:52;;;;;;;6.93;4.73;;;;;;;;;;6324719;28;20120;-76
2024/03/09 05:06:53;;;;;;;7.82;5.30;;;;;;;;;;6318837;28;20508;-76
2024/03/09 05:09:53;;;;;;;6.83;5.30;;;;;;;;;;6324721;28;20028;-76
2024/03/09 05:12:53;;;;;;;7.60;5.27;;;;;;;;;;6322892;28;20030;-74
2024/03/09 05:15:54;;;;;;;7.20;4.87;;;;;;;;;;6323797;28;20032;-75
2024/03/09 05:18:54;;;;;;;6.07;5.07;;;;;;;;;;6323316;28;20070;-76
2024/03/09 05:21:54;;;;;;;8.97;5.37;;;;;;;;;;6322878;28;20380;-75
2024/03/09 05:24:56;;;;;;;6.50;5.03;;;;;;;;;;6318951;28;20416;-75
2024/03/09 05:27:57;;;;;;;7.28;5.07;;;;;;;;;;6326085;28;20024;-76
2024/03/09 05:30:59;;;;;;;7.85;5.88;;;;;;;;;;6322037;28;20040;-76
2024/03/09 05:34:00;;;;;;;7.82;5.57;;;;;;;;;;6323427;28;20438;-76
2024/03/09 05:37:06;;;;;;;6.90;5.63;;;;;;;;;;6323706;28;20040;-76
2024/03/09 05:40:09;;;;;;;8.35;5.85;;;;;;;;;;6323539;28;20392;-76
2024/03/09 05:43:11;;;;;;;7.40;5.70;;;;;;;;;;6325855;28;20024;-76
2024/03/09 05:46:13;;;;;;;9.20;6.32;;;;;;;;;;6323260;28;20043;-75
2024/03/09 05:49:13;;;;;;;7.80;5.18;;;;;;;;;;6321285;28;20472;-76
2024/03/09 05:52:13;;;;;;;7.10;5.90;;;;;;;;;;6322918;28;20023;-76
2024/03/09 05:55:14;;;;;;;8.93;6.23;;;;;;;;;;6320582;28;20028;-76
2024/03/09 05:58:15;;;;;;;7.97;5.80;;;;;;;;;;6324458;28;20119;-76
2024/03/09 06:01:15;;;;;;;9.70;6.18;;;;;;;;;;6317469;28;20020;-76
2024/03/09 06:04:15;;;;;;;6.70;5.37;;;;;;;;;;6323171;28;20397;-76
2024/03/09 06:07:15;;;;;;;7.63;5.43;;;;;;;;;;6321405;28;20465;-75
2024/03/09 06:10:19;;;;;;;9.37;6.00;;;;;;;;;;6323169;28;20380;-76
2024/03/09 06:13:20;;;;;;;8.45;6.43;;;;;;;;;;6320934;28;20060;-76
2024/03/09 06:16:21;;;;;;;8.50;5.82;;;;;;;;;;6320043;28;20460;-76
2024/03/09 06:19:21;;;;;;;7.87;5.77;;;;;;;;;;6317863;28;20039;-76
2024/03/09 06:22:21;;;;;;;8.17;6.00;;;;;;;;;;6314578;28;20020;-76
2024/03/09 06:25:29;;;;;;;8.43;6.27;;;;;;;;;;6320126;28;20309;-75
2024/03/09 06:28:29;;;;;;;9.18;6.28;;;;;;;;;;6321487;28;20068;-76
2024/03/09 06:31:31;;;;;;;9.03;6.20;;;;;;;;;;6320823;28;20353;-76
2024/03/09 06:34:31;;;;;;;8.55;5.88;;;;;;;;;;6319143;28;20047;-77
2024/03/09 06:37:31;;;;;;;8.37;6.03;;;;;;;;;;6318236;28;20469;-76
2024/03/09 06:40:40;;;;;;;7.23;6.13;;;;;;;;;;6320925;28;20439;-76
2024/03/09 06:43:40;;;;;;;8.52;6.20;;;;;;;;;;6320663;28;20044;-76
2024/03/09 06:46:40;;;;;;;8.50;6.40;;;;;;;;;;6320361;28;20028;-76
2024/03/09 06:49:40;;;;;;;8.40;5.90;;;;;;;;;;6320305;28;20036;-77
2024/03/09 06:52:41;;;;;;;8.50;6.03;;;;;;;;;;6318571;28;20039;-75
2024/03/09 06:55:41;;;;;;;7.93;6.30;;;;;;;;;;6319226;28;20028;-78
2024/03/09 06:58:41;;;;;;;10.17;6.30;;;;;;;;;;6317928;28;20048;-77
2024/03/09 07:01:42;;;;;;;8.57;5.93;;;;;;;;;;6319918;28;20020;-77
2024/03/09 07:04:44;;;;;;;8.50;6.00;;;;;;;;;;6318945;28;20044;-77
2024/03/09 07:07:44;;;;;;;8.20;6.32;;;;;;;;;;6311570;28;20077;-78
2024/03/09 07:10:46;;;;;;;9.00;6.27;;;;;;;;;;6316706;28;20027;-77
2024/03/09 07:13:46;;;;;;;8.27;6.68;;;;;;;;;;6315244;28;20036;-77
2024/03/09 07:16:47;;;;;;;8.90;6.50;;;;;;;;;;6289865;28;20041;-77
2024/03/09 07:19:47;;;;;;;8.83;6.30;;;;;;;;;;6318527;28;20027;-77
2024/03/09 07:22:49;;;;;;;7.90;5.83;;;;;;;;;;6317260;28;20484;-78
2024/03/09 07:25:50;;;;;;;9.18;6.38;;;;;;;;;;6318533;28;20082;-76
2024/03/09 07:28:53;;;;;;;9.77;6.45;;;;;;;;;;6300111;28;20044;-78
2024/03/09 07:31:54;;;;;;;9.10;6.57;;;;;;;;;;6319766;28;20032;-76
2024/03/09 07:34:54;;;;;;;8.80;6.67;;;;;;;;;;6319070;28;20028;-73
2024/03/09 07:37:58;;;;;;;8.93;6.53;;;;;;;;;;6310781;28;20413;-74
2024/03/09 07:40:59;;;;;;;9.27;6.90;;;;;;;;;;6319045;28;20031;-74
2024/03/09 07:43:59;;;;;;;8.67;7.03;;;;;;;;;;6320031;28;20114;-74
2024/03/09 07:47:00;;;;;;;8.67;6.47;;;;;;;;;;6318376;28;20024;-78
2024/03/09 07:50:01;;;;;;;8.15;6.32;;;;;;;;;;6312940;28;20012;-74
2024/03/09 07:53:01;;;;;;;8.05;6.25;;;;;;;;;;6317276;28;20024;-75
2024/03/09 07:56:02;;;;;;;10.10;6.30;;;;;;;;;;6320301;28;20429;-77
2024/03/09 07:59:07;;;;;;;8.38;6.13;;;;;;;;;;6320609;28;20032;-78
2024/03/09 08:02:07;;;;;;;7.82;6.05;;;;;;;;;;6318508;28;20024;-77
2024/03/09 08:05:10;;;;;;;9.47;6.87;;;;;;;;;;6295102;28;20105;-77
2024/03/09 08:08:11;;;;;;;10.77;6.60;;;;;;;;;;6317408;28;20012;-77
2024/03/09 08:11:12;;;;;;;8.98;6.60;;;;;;;;;;6319094;28;20081;-78
2024/03/09 08:14:12;;;;;;;8.07;6.53;;;;;;;;;;6321631;28;20024;-77
2024/03/09 08:17:13;;;;;;;8.97;7.07;;;;;;;;;;6311471;28;20024;-78
2024/03/09 08:20:20;;;;;;;;;;;;;;;;;;6320877;28;20061;-79
2024/03/09 08:23:23;;;;;;;6.35;4.70;;;;;;;;;;6314504;28;19969;-77
2024/03/09 08:26:24;;;;;;;8.88;5.97;;;;;;;;;;6317515;28;20051;-78
2024/03/09 08:29:24;;;;;;;;;;;;;;;;;;6323673;28;20598;-78
2024/03/09 08:32:25;;;;;;;5.88;4.63;;;;;;;;;;6320828;28;19911;-77
2024/03/09 08:35:27;;;;;;;8.13;5.43;;;;;;;;;;6316904;28;20024;-76
2024/03/09 08:38:28;;;;;;;7.50;6.07;;;;;;;;;;6319718;28;20113;-76
2024/03/09 08:41:28;;;;;;;9.20;6.23;;;;;;;;;;6320221;28;20036;-77
2024/03/09 08:44:28;;;;;;;9.57;6.53;;;;;;;;;;6320931;28;20024;-77
2024/03/09 08:47:28;;;;;;;9.23;6.53;;;;;;;;;;6322754;28;20035;-78
2024/03/09 08:50:29;;;;;;;7.97;6.53;;;;;;;;;;6319996;28;20370;-77
2024/03/09 08:53:29;;;;;;;9.33;6.23;;;;;;;;;;6322129;28;20086;-77
2024/03/09 08:56:29;;;;;;;8.47;6.57;;;;;;;;;;6294113;28;20028;-77
2024/03/09 08:59:29;;;;;;;7.77;6.17;;;;;;;;;;6318906;28;20044;-76
2024/03/09 09:02:30;;;;;;;7.63;6.00;;;;;;;;;;6321503;28;20032;-77
2024/03/09 09:05:30;;;;;;;6.93;5.80;;;;;;;;;;6316443;28;20070;-77
2024/03/09 09:08:35;;;;;;;9.13;6.47;;;;;;;;;;6322435;28;20490;-77
2024/03/09 09:11:35;;;;;;;7.95;6.47;;;;;;;;;;6299803;28;20028;-77
2024/03/09 09:14:36;;;;;;;7.73;6.67;;;;;;;;;;6305705;28;20089;-77
2024/03/09 09:17:36;;;;;;;7.77;6.23;;;;;;;;;;6317098;28;20039;-78
2024/03/09 09:20:37;;;;;;;8.47;6.67;;;;;;;;;;6318505;28;20353;-76
2024/03/09 09:23:37;;;;;;;9.70;6.53;;;;;;;;;;6285927;28;20044;-78
2024/03/09 09:26:38;;;;;;;8.20;5.88;;;;;;;;;;6295288;28;20528;-79
2024/03/09 09:29:38;;;;;;;8.10;6.23;;;;;;;;;;6298772;28;20473;-78
2024/03/09 09:32:40;;;;;;;7.13;5.67;;;;;;;;;;6298819;28;20024;-78
2024/03/09 09:35:41;;;;;;;6.63;5.55;;;;;;;;;;6284603;28;20017;-76
2024/03/09 09:38:41;;;;;;;8.73;6.10;;;;;;;;;;6289738;28;20436;-77
2024/03/09 09:41:44;;;;;;;8.00;6.30;;;;;;;;;;6297376;28;20081;-76
2024/03/09 09:44:45;;;;;;;7.63;6.35;;;;;;;;;;6297488;28;20035;-78
2024/03/09 09:47:46;;;;;;;6.70;5.50;;;;;;;;;;6294880;28;20437;-76
2024/03/09 09:50:48;;;;;;;7.35;5.95;;;;;;;;;;6291480;28;20412;-77
2024/03/09 09:53:49;;;;;;;6.97;6.10;;;;;;;;;;6295370;28;20032;-79
2024/03/09 09:56:50;;;;;;;8.02;6.07;;;;;;;;;;6295130;28;20054;-78
2024/03/09 09:59:50;;;;;;;6.77;5.60;;;;;;;;;;6295246;28;20436;-78
2024/03/09 10:02:51;;;;;;;7.80;5.90;;;;;;;;;;6293298;28;20028;-78
2024/03/09 10:05:52;;;;;;;;;;;;;;;;;;6292019;28;20024;-78
2024/03/09 10:08:53;;;;;;;5.68;4.72;;;;;;;;;;6296021;28;20277;-76
2024/03/09 10:11:54;;;;;;;6.43;5.22;;;;;;;;;;6293432;28;20095;-77
2024/03/09 10:14:56;;;;;;;7.30;5.60;;;;;;;;;;6295451;28;20036;-77
2024/03/09 10:17:57;;;;;;;6.82;5.65;;;;;;;;;;6293121;28;20028;-79
2024/03/09 10:21:00;;;;;;;6.07;5.40;;;;;;;;;;6289684;28;20040;-79
2024/03/09 10:24:00;;;;;;;6.60;5.88;;;;;;;;;;6292738;28;20497;-79
2024/03/09 10:27:10;;;;;;;7.95;6.22;;;;;;;;;;6311202;28;20040;-78
2024/03/09 10:30:10;;;;;;;7.18;5.57;;;;;;;;;;6316999;28;20385;-78
2024/03/09 10:33:11;;;;;;;6.70;5.67;;;;;;;;;;6320932;28;20032;-76
2024/03/09 10:36:13;;;;;;;7.20;5.78;;;;;;;;;;6299392;28;20096;-76
2024/03/09 10:39:19;;;;;;;7.43;5.38;;;;;;;;;;6319315;28;20032;-75
2024/03/09 10:42:20;;;;;;;7.40;5.97;;;;;;;;;;6312637;28;20522;-75
2024/03/09 10:45:21;;;;;;;8.17;5.97;;;;;;;;;;6317167;28;20031;-76
2024/03/09 10:48:24;;;;;;;6.25;5.28;;;;;;;;;;6315650;28;20035;-75
2024/03/09 10:51:27;;;;;;;7.35;5.32;;;;;;;;;;6317750;28;20023;-75
2024/03/09 10:54:30;;;;;;;6.75;5.85;;;;;;;;;;6318849;28;20107;-75
2024/03/09 10:57:30;;;;;;;7.32;5.60;;;;;;;;;;6319102;28;20056;-75
2024/03/09 11:00:32;;;;;;;6.97;5.43;;;;;;;;;;6320464;28;20034;-75
2024/03/09 11:03:35;;;;;;;7.00;4.93;;;;;;;;;;6318285;28;20122;-75
2024/03/09 11:06:35;;;;;;;6.75;5.47;;;;;;;;;;6317243;28;20062;-75
2024/03/09 11:09:37;;;;;;;6.63;5.37;;;;;;;;;;6315900;28;20594;-75
2024/03/09 11:12:37;;;;;;;5.45;4.80;;;;;;;;;;6318022;28;20476;-75
2024/03/09 11:15:37;;;;;;;6.27;5.10;;;;;;;;;;6319083;28;20116;-73
2024/03/09 11:18:41;;;;;;;5.10;4.60;;;;;;;;;;6311612;28;20392;-74
2024/03/09 11:21:42;;;;;;;5.45;4.68;;;;;;;;;;6312938;28;20107;-75
2024/03/09 11:24:43;;;;;;;5.50;4.60;;;;;;;;;;6317861;28;20058;-74
2024/03/09 11:27:43;;;;;;;4.90;4.40;;;;;;;;;;6314149;28;20454;-75
2024/03/09 11:31:11;;;;;;;5.43;4.37;;;;;;;;;;6315334;28;20032;-75
2024/03/09 11:34:16;;;;;;;5.20;4.30;;;;;;;;;;6315493;28;20425;-74
2024/03/09 11:37:16;;;;;;;6.68;4.93;;;;;;;;;;6316160;28;20581;-74
2024/03/09 11:40:18;;;;;;;5.93;5.20;;;;;;;;;;6318981;28;20029;-74
2024/03/09 11:43:18;;;;;;;6.63;5.00;;;;;;;;;;6310423;28;20035;-75
2024/03/09 11:46:18;;;;;;;5.77;4.80;;;;;;;;;;6313529;28;20400;-75
2024/03/09 11:49:19;;;;;;;5.23;4.60;;;;;;;;;;6319522;28;20066;-75
2024/03/09 11:52:22;;;;;;;4.50;4.10;;;;;;;;;;6317622;28;20523;-74
2024/03/09 11:55:26;;;;;;;6.25;4.45;;;;;;;;;;6322256;28;20034;-74
2024/03/09 11:58:26;;;;;;;5.40;4.30;;;;;;;;;;6306883;28;20023;-73
2024/03/09 12:01:26;;;;;;;4.60;3.90;;;;;;;;;;6308958;28;20042;-75
2024/03/09 12:04:27;;;;;;;4.70;4.20;;;;;;;;;;6319700;28;20081;-74
2024/03/09 12:07:27;;;;;;;3.73;3.43;;;;;;;;;;6323673;28;20127;-74
2024/03/09 12:10:28;;;;;;;3.87;3.40;;;;;;;;;;6323249;28;20031;-73
2024/03/09 12:13:29;;;;;;;4.43;3.53;;;;;;;;;;6323624;28;20388;-76
2024/03/09 12:16:30;;;;;;;3.93;3.53;;;;;;;;;;6322552;28;20024;-74
2024/03/09 12:19:30;;;;;;;4.40;3.90;;;;;;;;;;6317676;28;20024;-72
2024/03/09 12:22:31;;;;;;;5.47;4.53;;;;;;;;;;6301514;28;20089;-73
2024/03/09 12:25:31;;;;;;;5.53;4.13;;;;;;;;;;6302980;28;20501;-74
2024/03/09 12:28:31;;;;;;;4.93;4.27;;;;;;;;;;6320009;28;20041;-74
2024/03/09 12:31:32;;;;;;;4.20;3.60;;;;;;;;;;6323241;28;20028;-77
2024/03/09 12:34:33;;;;;;;3.88;3.55;;;;;;;;;;6324340;28;20469;-77
2024/03/09 12:37:35;;;;;;;4.83;3.80;;;;;;;;;;6322348;28;20032;-78
2024/03/09 12:40:35;;;;;;;4.25;3.80;;;;;;;;;;6322845;28;20031;-77
2024/03/09 12:43:38;;;;;;;4.57;3.90;;;;;;;;;;6325035;28;20377;-77
2024/03/09 12:46:40;;;;;;;5.60;4.32;;;;;;;;;;6324604;28;20036;-76
2024/03/09 12:49:41;;;;;;;5.05;4.13;;;;;;;;;;6322394;28;20468;-77
2024/03/09 12:52:44;;;;;;;4.97;3.85;;;;;;;;;;6323762;28;20093;-76
2024/03/09 12:55:45;;;;;;;4.00;3.53;;;;;;;;;;6321041;28;20125;-76
2024/03/09 12:58:47;;;;;;;5.03;4.07;;;;;;;;;;6321499;28;20016;-75
2024/03/09 13:01:48;;;;;;;4.65;4.15;;;;;;;;;;6303745;28;20052;-76
2024/03/09 13:04:50;;;;;;;4.80;4.30;;;;;;;;;;6320889;28;20046;-79
2024/03/09 13:07:56;;;;;;;5.65;4.45;;;;;;;;;;6318532;28;20354;-77
2024/03/09 13:10:56;;;;;;;5.60;4.68;;;;;;;;;;6319113;28;20026;-76
2024/03/09 13:13:57;;;;;;;6.33;4.77;;;;;;;;;;6319681;28;20024;-78
2024/03/09 13:16:57;;;;;;;5.40;4.60;;;;;;;;;;6320212;28;20028;-78
2024/03/09 13:19:58;;;;;;;5.43;4.83;;;;;;;;;;6285579;28;20060;-78
2024/03/09 13:23:01;;;;;;;5.90;4.53;;;;;;;;;;6314273;28;20032;-76
2024/03/09 13:26:02;;;;;;;5.80;4.40;;;;;;;;;;6314580;28;20052;-76
2024/03/09 13:29:03;;;;;;;4.97;4.30;;;;;;;;;;6298700;28;20530;-76
2024/03/09 13:32:15;;;;;;;6.50;4.70;;;;;;;;;;6298479;28;20388;-76
2024/03/09 13:35:19;;;;;;;5.80;4.70;;;;;;;;;;6297139;28;20057;-77
2024/03/09 13:38:21;;;;;;;5.32;4.78;;;;;;;;;;6304395;28;20047;-75
2024/03/09 13:41:24;;;;;;;7.07;5.70;;;;;;;;;;6320815;28;20043;-75
2024/03/09 13:44:24;;;;;;;5.88;4.75;;;;;;;;;;6296907;28;20175;-75
2024/03/09 13:47:24;;;;;;;5.63;5.03;;;;;;;;;;6315852;28;20024;-75
2024/03/09 13:50:28;;;;;;;5.80;4.78;;;;;;;;;;6315782;28;20012;-74
2024/03/09 13:53:28;;;;;;;4.90;4.20;;;;;;;;;;6296390;28;20025;-75
2024/03/09 13:56:28;;;;;;;6.37;5.10;;;;;;;;;;6318615;28;20484;-74
2024/03/09 13:59:29;;;;;;;6.50;4.87;;;;;;;;;;6319566;28;20032;-75
2024/03/09 14:02:29;;;;;;;6.60;4.80;;;;;;;;;;6321100;28;20031;-74
2024/03/09 14:05:29;;;;;;;5.30;4.47;;;;;;;;;;6318585;28;20052;-75
2024/03/09 14:08:29;;;;;;;5.13;4.37;;;;;;;;;;6320440;28;20461;-77
2024/03/09 14:11:30;;;;;;;6.43;4.63;;;;;;;;;;6321131;28;20058;-74
2024/03/09 14:14:30;;;;;;;5.30;4.60;;;;;;;;;;6321013;28;20473;-75
2024/03/09 14:17:30;;;;;;;6.40;4.73;;;;;;;;;;6319071;28;20388;-79
2024/03/09 14:20:31;;;;;;;6.20;4.35;;;;;;;;;;6314980;28;20389;-78
2024/03/09 14:23:33;;;;;;;5.73;4.90;;;;;;;;;;6319642;28;20040;-76
2024/03/09 14:26:33;;;;;;;6.25;4.78;;;;;;;;;;6319419;28;20040;-77
2024/03/09 14:29:35;;;;;;;4.97;4.43;;;;;;;;;;6321767;28;20035;-77
2024/03/09 14:32:39;;;;;;;5.88;4.88;;;;;;;;;;6314524;28;20024;-78
2024/03/09 14:35:42;;;;;;;5.85;4.68;;;;;;;;;;6318380;28;20028;-78
2024/03/09 14:38:45;;;;;;;5.95;4.72;;;;;;;;;;6307518;28;20035;-80
2024/03/09 14:41:45;;;;;;;5.47;4.20;;;;;;;;;;6302519;28;20035;-77
2024/03/09 14:44:45;;;;;;;5.60;4.53;;;;;;;;;;6320422;28;20032;-75
2024/03/09 14:47:48;;;;;;;5.13;4.57;;;;;;;;;;6314967;28;20482;-77
2024/03/09 14:50:48;;;;;;;5.38;4.25;;;;;;;;;;6310008;28;20058;-76
2024/03/09 14:53:50;;;;;;;5.83;4.27;;;;;;;;;;6317804;28;20027;-75
2024/03/09 14:56:50;;;;;;;5.78;4.75;;;;;;;;;;6316035;28;20415;-77
2024/03/09 14:59:52;;;;;;;6.18;4.47;;;;;;;;;;6286984;28;20077;-76
2024/03/09 15:02:53;;;;;;;6.20;4.30;;;;;;;;;;6320176;28;20074;-78
2024/03/09 15:05:55;;;;;;;5.22;4.53;;;;;;;;;;6282565;28;20032;-78
2024/03/09 15:08:57;;;;;;;5.63;4.78;;;;;;;;;;6315571;28;20036;-75
2024/03/09 15:11:58;;;;;;;6.18;4.82;;;;;;;;;;6317639;28;20028;-75
2024/03/09 15:14:58;;;;;;;6.03;5.03;;;;;;;;;;6319584;28;20550;-76
2024/03/09 15:18:01;;;;;;;5.00;4.33;;;;;;;;;;6299891;28;20031;-75
2024/03/09 15:21:03;;;;;;;6.65;4.82;;;;;;;;;;6301784;28;20024;-77
2024/03/09 15:24:04;;;;;;;5.18;4.43;;;;;;;;;;6319377;28;20400;-77
2024/03/09 15:27:06;;;;;;;6.07;5.00;;;;;;;;;;6319167;28;20048;-75
2024/03/09 15:30:08;;;;;;;5.40;4.30;;;;;;;;;;6322246;28;20381;-77
2024/03/09 15:33:11;;;;;;;5.72;4.57;;;;;;;;;;6321486;28;20020;-76
2024/03/09 15:36:12;;;;;;;6.53;4.80;;;;;;;;;;6302866;28;20028;-77
2024/03/09 15:39:13;;;;;;;5.40;4.28;;;;;;;;;;6288641;28;20513;-78
2024/03/09 15:42:16;;;;;;;4.57;3.90;;;;;;;;;;6320665;28;20021;-77
2024/03/09 15:45:18;;;;;;;5.63;4.47;;;;;;;;;;6296561;28;20040;-78
2024/03/09 15:48:18;;;;;;;5.88;4.35;;;;;;;;;;6300960;28;20110;-80
2024/03/09 15:51:18;;;;;;;6.70;4.63;;;;;;;;;;6324140;28;20028;-78
2024/03/09 15:54:24;;;;;;;4.20;3.73;;;;;;;;;;6320970;28;20804;-79
2024/03/09 15:57:24;;;;;;;5.93;4.40;;;;;;;;;;6321851;28;20032;-81
2024/03/09 16:00:24;;;;;;;5.50;4.37;;;;;;;;;;6314460;28;20362;-81
2024/03/09 16:03:27;;;;;;;5.47;4.33;;;;;;;;;;6322499;28;20032;-78
2024/03/09 16:06:29;;;;;;;4.63;3.97;;;;;;;;;;6316484;28;20035;-82
2024/03/09 16:09:32;;;;;;;5.65;4.55;;;;;;;;;;6321716;28;20099;-81
2024/03/09 16:12:35;;;;;;;6.20;4.57;;;;;;;;;;6323759;28;20456;-78
2024/03/09 16:15:35;;;;;;;4.38;3.97;;;;;;;;;;6321668;28;20107;-78
2024/03/09 16:18:36;;;;;;;4.43;3.57;;;;;;;;;;6320484;28;20482;-79
2024/03/09 16:21:37;;;;;;;4.83;3.57;;;;;;;;;;6324065;28;20416;-77
2024/03/09 16:24:38;;;;;;;4.10;3.22;;;;;;;;;;6303504;28;20574;-80
2024/03/09 16:27:40;;;;;;;4.32;3.38;;;;;;;;;;6323701;28;20028;-78
2024/03/09 16:30:41;;;;;;;4.80;3.25;;;;;;;;;;6297752;28;20061;-78
2024/03/09 16:33:41;;;;;;;3.83;3.30;;;;;;;;;;6316791;28;20145;-77
2024/03/09 16:36:42;;;;;;;3.67;3.03;;;;;;;;;;6319487;28;20424;-81
2024/03/09 16:39:46;;;;;;;3.87;2.93;;;;;;;;;;6323156;28;20487;-78
2024/03/09 16:42:46;;;;;;;3.15;2.70;;;;;;;;;;6319806;28;20027;-79
2024/03/09 16:45:46;;;;;;;4.07;3.00;;;;;;;;;;6323969;28;20056;-78
2024/03/09 16:48:50;;;;;;;3.87;2.73;;;;;;;;;;6317276;28;20020;-78
2024/03/09 16:51:51;;;;;;;3.63;2.78;;;;;;;;;;6293992;28;20473;-77
2024/03/09 16:54:51;;;;;;;3.10;2.77;;;;;;;;;;6322107;28;20031;-77
2024/03/09 16:57:52;;;;;;;3.03;2.63;;;;;;;;;;6316863;28;20281;-78
2024/03/09 17:00:52;;;;;;;3.77;2.73;;;;;;;;;;6317565;28;20027;-78
2024/03/09 17:03:53;;;;;;;3.30;2.47;;;;;;;;;;6319634;28;20032;-80
2024/03/09 17:06:53;;;;;;;2.83;2.13;;;;;;;;;;6318212;28;20036;-80
2024/03/09 17:09:53;;;;;;;2.93;2.17;;;;;;;;;;6322803;28;20019;-78
2024/03/09 17:12:56;;;;;;;2.33;2.13;;;;;;;;;;6300951;28;20043;-78
2024/03/09 17:15:58;;;;;;;2.95;2.28;;;;;;;;;;6320430;28;20046;-76
2024/03/09 17:18:58;;;;;;;2.60;2.40;;;;;;;;;;6319904;28;20032;-76
2024/03/09 17:21:58;;;;;;;3.37;2.57;;;;;;;;;;6320484;28;20023;-76
2024/03/09 17:24:59;;;;;;;3.13;2.10;;;;;;;;;;6320848;28;20514;-76
2024/03/09 17:28:00;;;;;;;2.57;2.37;;;;;;;;;;6320037;28;20368;-77
2024/03/09 17:31:00;;;;;;;2.80;2.28;;;;;;;;;;6324185;28;20036;-75
2024/03/09 17:34:06;;;;;;;2.70;2.37;;;;;;;;;;6319474;28;20046;-75
2024/03/09 17:37:08;;;;;;;3.30;2.60;;;;;;;;;;6318665;28;20214;-73
2024/03/09 17:40:12;;;;;;;3.05;2.58;;;;;;;;;;6319544;28;20384;-74
2024/03/09 17:43:12;;;;;;;3.33;2.63;;;;;;;;;;6321863;28;20028;-73
2024/03/09 17:46:12;;;;;;;3.13;2.67;;;;;;;;;;6321688;28;20070;-75
2024/03/09 17:49:13;;;;;;;2.57;2.33;;;;;;;;;;6319874;28;20020;-75
2024/03/09 17:52:14;;;;;;;4.57;3.00;;;;;;;;;;6317645;28;20428;-74
2024/03/09 17:55:17;;;;;;;;;;;;;;;;;;6316885;28;20020;-75
2024/03/09 17:58:18;;;;;;;3.08;2.50;;;;;;;;;;6315178;28;19954;-73
2024/03/09 18:01:19;;;;;;;3.13;2.87;;;;;;;;;;6320168;28;20035;-75
2024/03/09 18:04:20;;;;;;;4.35;3.33;;;;;;;;;;6300022;28;20040;-76
2024/03/09 18:07:20;;;;;;;4.13;3.10;;;;;;;;;;6317344;28;20028;-76
2024/03/09 18:10:21;;;;;;;3.57;3.10;;;;;;;;;;6316048;28;20423;-74
2024/03/09 18:13:21;;;;;;;4.05;3.22;;;;;;;;;;6302734;28;20016;-77